sensor_id;sensor_type;location;lat;lon;timestamp;temperature;humidity
79301;SHT31;68755;51.984;5.646;2024-01-15T00:02:07;4.0;77.2
79301;SHT31;68755;51.984;5.646;2024-01-15T00:04:38;3.9;77.4
79301;SHT31;68755;51.984;5.646;2024-01-15T00:07:08;3.9;77.6
79301;SHT31;68755;51.984;5.646;2024-01-15T00:09:39;3.9;77.8
79301;SHT31;68755;51.984;5.646;2024-01-15T00:12:09;3.9;77.7
79301;SHT31;68755;51.984;5.646;2024-01-15T00:14:38;3.8;77.7
79301;SHT31;68755;51.984;5.646;2024-01-15T00:17:08;3.8;77.4
79301;SHT31;68755;51.984;5.646;2024-01-15T00:19:38;3.8;77.4
79301;SHT31;68755;51.984;5.646;2024-01-15T00:22:07;3.8;77.2
79301;SHT31;68755;51.984;5.646;2024-01-15T00:24:37;3.7;77.3
79301;SHT31;68755;51.984;5.646;2024-01-15T00:27:07;3.7;77.3
79301;SHT31;68755;51.984;5.646;2024-01-15T00:29:36;3.7;77.4
79301;SHT31;68755;51.984;5.646;2024-01-15T00:32:06;3.7;77.4
79301;SHT31;68755;51.984;5.646;2024-01-15T00:34:36;3.6;77.5
79301;SHT31;68755;51.984;5.646;2024-01-15T00:37:06;3.6;77.5
79301;SHT31;68755;51.984;5.646;2024-01-15T00:39:36;3.6;77.6
79301;SHT31;68755;51.984;5.646;2024-01-15T00:42:07;3.6;77.7
79301;SHT31;68755;51.984;5.646;2024-01-15T00:44:37;3.5;77.7
79301;SHT31;68755;51.984;5.646;2024-01-15T00:47:07;3.5;77.7
79301;SHT31;68755;51.984;5.646;2024-01-15T00:49:36;3.5;77.9
79301;SHT31;68755;51.984;5.646;2024-01-15T00:52:06;3.5;78.0
79301;SHT31;68755;51.984;5.646;2024-01-15T00:54:36;3.5;78.1
79301;SHT31;68755;51.984;5.646;2024-01-15T00:57:07;3.4;78.2
79301;SHT31;68755;51.984;5.646;2024-01-15T00:59:37;3.4;78.2
79301;SHT31;68755;51.984;5.646;2024-01-15T01:02:06;3.4;78.2
79301;SHT31;68755;51.984;5.646;2024-01-15T01:04:36;3.4;78.1
79301;SHT31;68755;51.984;5.646;2024-01-15T01:07:06;3.4;78.1
79301;SHT31;68755;51.984;5.646;2024-01-15T01:09:35;3.3;78.0
79301;SHT31;68755;51.984;5.646;2024-01-15T01:12:05;3.3;77.9
79301;SHT31;68755;51.984;5.646;2024-01-15T01:14:35;3.3;78.0
79301;SHT31;68755;51.984;5.646;2024-01-15T01:17:05;3.3;78.1
79301;SHT31;68755;51.984;5.646;2024-01-15T01:19:35;3.3;78.1
79301;SHT31;68755;51.984;5.646;2024-01-15T01:22:05;3.3;78.5
79301;SHT31;68755;51.984;5.646;2024-01-15T01:24:35;3.3;78.8
79301;SHT31;68755;51.984;5.646;2024-01-15T01:27:05;3.3;78.8
79301;SHT31;68755;51.984;5.646;2024-01-15T01:29:35;3.3;78.6
79301;SHT31;68755;51.984;5.646;2024-01-15T01:32:05;3.3;78.3
79301;SHT31;68755;51.984;5.646;2024-01-15T01:34:40;3.3;78.2
79301;SHT31;68755;51.984;5.646;2024-01-15T01:37:11;3.3;78.0
79301;SHT31;68755;51.984;5.646;2024-01-15T01:39:42;3.2;77.9
79301;SHT31;68755;51.984;5.646;2024-01-15T01:42:13;3.2;77.6
79301;SHT31;68755;51.984;5.646;2024-01-15T01:44:42;3.2;77.4
79301;SHT31;68755;51.984;5.646;2024-01-15T01:47:13;3.2;77.4
79301;SHT31;68755;51.984;5.646;2024-01-15T01:49:45;3.2;77.6
79301;SHT31;68755;51.984;5.646;2024-01-15T01:52:16;3.2;77.6
79301;SHT31;68755;51.984;5.646;2024-01-15T01:54:45;3.2;77.4
79301;SHT31;68755;51.984;5.646;2024-01-15T01:57:16;3.3;77.2
79301;SHT31;68755;51.984;5.646;2024-01-15T01:59:47;3.3;76.9
79301;SHT31;68755;51.984;5.646;2024-01-15T02:02:18;3.3;76.7
79301;SHT31;68755;51.984;5.646;2024-01-15T02:04:49;3.3;76.4
79301;SHT31;68755;51.984;5.646;2024-01-15T02:07:19;3.2;76.4
79301;SHT31;68755;51.984;5.646;2024-01-15T02:09:49;3.2;76.5
79301;SHT31;68755;51.984;5.646;2024-01-15T02:12:19;3.2;76.5
79301;SHT31;68755;51.984;5.646;2024-01-15T02:14:49;3.2;76.6
79301;SHT31;68755;51.984;5.646;2024-01-15T02:17:19;3.1;76.6
79301;SHT31;68755;51.984;5.646;2024-01-15T02:19:49;3.1;76.6
79301;SHT31;68755;51.984;5.646;2024-01-15T02:22:19;3.1;76.7
79301;SHT31;68755;51.984;5.646;2024-01-15T02:24:49;3.1;77.0
79301;SHT31;68755;51.984;5.646;2024-01-15T02:27:19;3.1;77.1
79301;SHT31;68755;51.984;5.646;2024-01-15T02:29:49;3.0;77.3
79301;SHT31;68755;51.984;5.646;2024-01-15T02:32:18;3.0;77.7
79301;SHT31;68755;51.984;5.646;2024-01-15T02:34:48;3.0;77.9
79301;SHT31;68755;51.984;5.646;2024-01-15T02:37:18;3.0;78.1
79301;SHT31;68755;51.984;5.646;2024-01-15T02:39:48;3.0;78.1
79301;SHT31;68755;51.984;5.646;2024-01-15T02:42:19;3.1;78.1
79301;SHT31;68755;51.984;5.646;2024-01-15T02:44:49;3.1;77.9
79301;SHT31;68755;51.984;5.646;2024-01-15T02:47:19;3.1;78.0
79301;SHT31;68755;51.984;5.646;2024-01-15T02:49:48;3.1;78.2
79301;SHT31;68755;51.984;5.646;2024-01-15T02:52:18;3.1;78.1
79301;SHT31;68755;51.984;5.646;2024-01-15T02:54:47;3.2;77.9
79301;SHT31;68755;51.984;5.646;2024-01-15T02:57:19;3.2;77.9
79301;SHT31;68755;51.984;5.646;2024-01-15T02:59:49;3.2;77.8
79301;SHT31;68755;51.984;5.646;2024-01-15T03:02:19;3.2;77.8
79301;SHT31;68755;51.984;5.646;2024-01-15T03:04:51;3.2;78.1
79301;SHT31;68755;51.984;5.646;2024-01-15T03:07:21;3.2;78.4
79301;SHT31;68755;51.984;5.646;2024-01-15T03:09:50;3.2;78.5
79301;SHT31;68755;51.984;5.646;2024-01-15T03:12:20;3.2;78.5
79301;SHT31;68755;51.984;5.646;2024-01-15T03:14:49;3.2;78.5
79301;SHT31;68755;51.984;5.646;2024-01-15T03:17:19;3.2;78.4
79301;SHT31;68755;51.984;5.646;2024-01-15T03:19:49;3.2;78.3
79301;SHT31;68755;51.984;5.646;2024-01-15T03:22:19;3.2;78.1
79301;SHT31;68755;51.984;5.646;2024-01-15T03:24:48;3.2;77.9
79301;SHT31;68755;51.984;5.646;2024-01-15T03:27:18;3.1;77.9
79301;SHT31;68755;51.984;5.646;2024-01-15T03:29:48;3.1;77.9
79301;SHT31;68755;51.984;5.646;2024-01-15T03:32:17;3.1;78.0
79301;SHT31;68755;51.984;5.646;2024-01-15T03:34:47;3.1;77.9
79301;SHT31;68755;51.984;5.646;2024-01-15T03:37:19;3.1;77.8
79301;SHT31;68755;51.984;5.646;2024-01-15T03:39:50;3.1;77.7
79301;SHT31;68755;51.984;5.646;2024-01-15T03:42:20;3.0;77.9
79301;SHT31;68755;51.984;5.646;2024-01-15T03:44:50;3.0;77.7
79301;SHT31;68755;51.984;5.646;2024-01-15T03:47:20;3.0;77.7
79301;SHT31;68755;51.984;5.646;2024-01-15T03:49:49;3.0;77.7
79301;SHT31;68755;51.984;5.646;2024-01-15T03:52:19;3.0;77.6
79301;SHT31;68755;51.984;5.646;2024-01-15T03:54:49;3.0;77.7
79301;SHT31;68755;51.984;5.646;2024-01-15T03:57:19;3.0;77.7
79301;SHT31;68755;51.984;5.646;2024-01-15T03:59:48;2.9;78.1
79301;SHT31;68755;51.984;5.646;2024-01-15T04:02:18;2.9;78.4
79301;SHT31;68755;51.984;5.646;2024-01-15T04:04:47;2.9;78.6
79301;SHT31;68755;51.984;5.646;2024-01-15T04:07:17;3.0;78.7
79301;SHT31;68755;51.984;5.646;2024-01-15T04:09:47;3.0;78.8
79301;SHT31;68755;51.984;5.646;2024-01-15T04:12:16;3.0;79.0
79301;SHT31;68755;51.984;5.646;2024-01-15T04:14:46;3.0;78.9
79301;SHT31;68755;51.984;5.646;2024-01-15T04:17:16;3.0;78.8
79301;SHT31;68755;51.984;5.646;2024-01-15T04:19:46;3.1;78.6
79301;SHT31;68755;51.984;5.646;2024-01-15T04:22:15;3.1;78.6
79301;SHT31;68755;51.984;5.646;2024-01-15T04:24:46;3.1;78.7
79301;SHT31;68755;51.984;5.646;2024-01-15T04:27:15;3.1;78.9
79301;SHT31;68755;51.984;5.646;2024-01-15T04:29:45;3.1;79.0
79301;SHT31;68755;51.984;5.646;2024-01-15T04:32:15;3.1;78.9
79301;SHT31;68755;51.984;5.646;2024-01-15T04:34:45;3.1;79.0
79301;SHT31;68755;51.984;5.646;2024-01-15T04:37:15;3.2;79.2
79301;SHT31;68755;51.984;5.646;2024-01-15T04:39:45;3.2;79.2
79301;SHT31;68755;51.984;5.646;2024-01-15T04:42:14;3.2;79.0
79301;SHT31;68755;51.984;5.646;2024-01-15T04:44:44;3.2;78.6
79301;SHT31;68755;51.984;5.646;2024-01-15T04:47:13;3.2;78.2
79301;SHT31;68755;51.984;5.646;2024-01-15T04:49:43;3.2;78.1
79301;SHT31;68755;51.984;5.646;2024-01-15T04:52:13;3.2;78.0
79301;SHT31;68755;51.984;5.646;2024-01-15T04:54:45;3.2;77.8
79301;SHT31;68755;51.984;5.646;2024-01-15T04:57:14;3.2;77.7
79301;SHT31;68755;51.984;5.646;2024-01-15T04:59:44;3.1;77.8
79301;SHT31;68755;51.984;5.646;2024-01-15T05:02:14;3.1;77.8
79301;SHT31;68755;51.984;5.646;2024-01-15T05:04:43;3.1;77.8
79301;SHT31;68755;51.984;5.646;2024-01-15T05:07:13;3.1;77.8
79301;SHT31;68755;51.984;5.646;2024-01-15T05:09:43;3.1;77.5
79301;SHT31;68755;51.984;5.646;2024-01-15T05:12:12;3.1;77.5
79301;SHT31;68755;51.984;5.646;2024-01-15T05:14:42;3.1;77.7
79301;SHT31;68755;51.984;5.646;2024-01-15T05:17:12;3.1;78.2
79301;SHT31;68755;51.984;5.646;2024-01-15T05:19:41;3.1;78.4
79301;SHT31;68755;51.984;5.646;2024-01-15T05:22:11;3.1;78.6
79301;SHT31;68755;51.984;5.646;2024-01-15T05:24:43;3.1;78.7
79301;SHT31;68755;51.984;5.646;2024-01-15T05:27:12;3.0;78.8
79301;SHT31;68755;51.984;5.646;2024-01-15T05:29:42;3.0;79.0
79301;SHT31;68755;51.984;5.646;2024-01-15T05:32:12;3.0;79.2
79301;SHT31;68755;51.984;5.646;2024-01-15T05:34:41;3.0;79.3
79301;SHT31;68755;51.984;5.646;2024-01-15T05:37:11;3.0;79.5
79301;SHT31;68755;51.984;5.646;2024-01-15T05:39:41;3.0;79.6
79301;SHT31;68755;51.984;5.646;2024-01-15T05:42:11;3.0;79.7
79301;SHT31;68755;51.984;5.646;2024-01-15T05:44:42;3.0;79.9
79301;SHT31;68755;51.984;5.646;2024-01-15T05:47:12;3.0;80.1
79301;SHT31;68755;51.984;5.646;2024-01-15T05:49:41;3.0;80.3
79301;SHT31;68755;51.984;5.646;2024-01-15T05:52:11;3.0;80.5
79301;SHT31;68755;51.984;5.646;2024-01-15T05:54:41;3.0;80.4
79301;SHT31;68755;51.984;5.646;2024-01-15T05:57:10;3.0;80.2
79301;SHT31;68755;51.984;5.646;2024-01-15T05:59:40;3.0;80.1
79301;SHT31;68755;51.984;5.646;2024-01-15T06:02:10;3.0;80.1
79301;SHT31;68755;51.984;5.646;2024-01-15T06:04:40;3.0;80.1
79301;SHT31;68755;51.984;5.646;2024-01-15T06:07:10;3.0;80.3
79301;SHT31;68755;51.984;5.646;2024-01-15T06:09:40;3.0;80.5
79301;SHT31;68755;51.984;5.646;2024-01-15T06:12:10;3.0;80.8
79301;SHT31;68755;51.984;5.646;2024-01-15T06:14:39;3.0;80.9
79301;SHT31;68755;51.984;5.646;2024-01-15T06:17:10;3.0;81.0
79301;SHT31;68755;51.984;5.646;2024-01-15T06:19:40;3.0;81.1
79301;SHT31;68755;51.984;5.646;2024-01-15T06:22:10;3.0;81.2
79301;SHT31;68755;51.984;5.646;2024-01-15T06:24:39;3.0;81.2
79301;SHT31;68755;51.984;5.646;2024-01-15T06:27:09;3.1;81.2
79301;SHT31;68755;51.984;5.646;2024-01-15T06:29:39;3.1;81.1
79301;SHT31;68755;51.984;5.646;2024-01-15T06:32:08;3.1;81.1
79301;SHT31;68755;51.984;5.646;2024-01-15T06:34:38;3.1;80.9
79301;SHT31;68755;51.984;5.646;2024-01-15T06:37:07;3.2;80.7
79301;SHT31;68755;51.984;5.646;2024-01-15T06:39:38;3.2;80.3
79301;SHT31;68755;51.984;5.646;2024-01-15T06:42:09;3.2;79.9
79301;SHT31;68755;51.984;5.646;2024-01-15T06:44:39;3.2;79.6
79301;SHT31;68755;51.984;5.646;2024-01-15T06:47:09;3.2;79.4
79301;SHT31;68755;51.984;5.646;2024-01-15T06:49:38;3.2;79.3
79301;SHT31;68755;51.984;5.646;2024-01-15T06:52:08;3.2;79.4
79301;SHT31;68755;51.984;5.646;2024-01-15T06:54:39;3.2;79.5
79301;SHT31;68755;51.984;5.646;2024-01-15T06:57:08;3.2;79.5
79301;SHT31;68755;51.984;5.646;2024-01-15T06:59:38;3.2;79.3
79301;SHT31;68755;51.984;5.646;2024-01-15T07:02:08;3.2;79.4
79301;SHT31;68755;51.984;5.646;2024-01-15T07:04:38;3.2;79.4
79301;SHT31;68755;51.984;5.646;2024-01-15T07:07:08;3.2;79.5
79301;SHT31;68755;51.984;5.646;2024-01-15T07:09:37;3.2;79.5
79301;SHT31;68755;51.984;5.646;2024-01-15T07:12:10;3.2;79.4
79301;SHT31;68755;51.984;5.646;2024-01-15T07:14:40;3.2;79.3
79301;SHT31;68755;51.984;5.646;2024-01-15T07:17:09;3.2;79.3
79301;SHT31;68755;51.984;5.646;2024-01-15T07:19:39;3.2;79.3
79301;SHT31;68755;51.984;5.646;2024-01-15T07:22:10;3.2;79.3
79301;SHT31;68755;51.984;5.646;2024-01-15T07:24:40;3.2;79.3
79301;SHT31;68755;51.984;5.646;2024-01-15T07:27:10;3.2;79.3
79301;SHT31;68755;51.984;5.646;2024-01-15T07:29:39;3.2;79.2
79301;SHT31;68755;51.984;5.646;2024-01-15T07:32:10;3.2;79.1
79301;SHT31;68755;51.984;5.646;2024-01-15T07:34:40;3.2;79.2
79301;SHT31;68755;51.984;5.646;2024-01-15T07:37:09;3.2;79.3
79301;SHT31;68755;51.984;5.646;2024-01-15T07:39:39;3.2;79.4
79301;SHT31;68755;51.984;5.646;2024-01-15T07:42:09;3.2;79.6
79301;SHT31;68755;51.984;5.646;2024-01-15T07:44:38;3.2;79.6
79301;SHT31;68755;51.984;5.646;2024-01-15T07:47:08;3.2;79.5
79301;SHT31;68755;51.984;5.646;2024-01-15T07:49:38;3.2;79.3
79301;SHT31;68755;51.984;5.646;2024-01-15T07:52:07;3.2;79.4
79301;SHT31;68755;51.984;5.646;2024-01-15T07:54:37;3.1;79.5
79301;SHT31;68755;51.984;5.646;2024-01-15T07:57:07;3.1;79.6
79301;SHT31;68755;51.984;5.646;2024-01-15T07:59:36;3.1;79.7
79301;SHT31;68755;51.984;5.646;2024-01-15T08:02:06;3.1;79.8
79301;SHT31;68755;51.984;5.646;2024-01-15T08:04:36;3.1;80.0
79301;SHT31;68755;51.984;5.646;2024-01-15T08:07:06;3.1;80.0
79301;SHT31;68755;51.984;5.646;2024-01-15T08:09:36;3.1;80.0
79301;SHT31;68755;51.984;5.646;2024-01-15T08:12:08;3.1;80.1
79301;SHT31;68755;51.984;5.646;2024-01-15T08:14:39;3.1;80.2
79301;SHT31;68755;51.984;5.646;2024-01-15T08:17:08;3.1;80.2
79301;SHT31;68755;51.984;5.646;2024-01-15T08:19:38;3.1;80.2
79301;SHT31;68755;51.984;5.646;2024-01-15T08:22:09;3.1;80.2
79301;SHT31;68755;51.984;5.646;2024-01-15T08:24:39;3.1;80.0
79301;SHT31;68755;51.984;5.646;2024-01-15T08:27:08;3.1;79.7
79301;SHT31;68755;51.984;5.646;2024-01-15T08:29:38;3.1;79.7
79301;SHT31;68755;51.984;5.646;2024-01-15T08:32:08;3.1;79.7
79301;SHT31;68755;51.984;5.646;2024-01-15T08:34:41;3.1;79.7
79301;SHT31;68755;51.984;5.646;2024-01-15T08:37:13;3.1;79.9
79301;SHT31;68755;51.984;5.646;2024-01-15T08:39:42;3.1;80.0
79301;SHT31;68755;51.984;5.646;2024-01-15T08:42:14;3.1;80.2
79301;SHT31;68755;51.984;5.646;2024-01-15T08:44:44;3.1;80.2
79301;SHT31;68755;51.984;5.646;2024-01-15T08:47:14;3.1;80.3
79301;SHT31;68755;51.984;5.646;2024-01-15T08:49:44;3.1;80.2
79301;SHT31;68755;51.984;5.646;2024-01-15T08:52:14;3.1;80.3
79301;SHT31;68755;51.984;5.646;2024-01-15T08:54:43;3.1;80.4
79301;SHT31;68755;51.984;5.646;2024-01-15T08:57:13;3.1;80.5
79301;SHT31;68755;51.984;5.646;2024-01-15T08:59:43;3.1;80.7
79301;SHT31;68755;51.984;5.646;2024-01-15T09:02:14;3.1;80.7
79301;SHT31;68755;51.984;5.646;2024-01-15T09:04:44;3.1;80.5
79301;SHT31;68755;51.984;5.646;2024-01-15T09:07:13;3.1;80.4
79301;SHT31;68755;51.984;5.646;2024-01-15T09:09:43;3.1;80.4
79301;SHT31;68755;51.984;5.646;2024-01-15T09:12:13;3.1;80.4
79301;SHT31;68755;51.984;5.646;2024-01-15T09:14:46;3.2;80.5
79301;SHT31;68755;51.984;5.646;2024-01-15T09:17:15;3.2;80.4
79301;SHT31;68755;51.984;5.646;2024-01-15T09:19:45;3.2;80.2
79301;SHT31;68755;51.984;5.646;2024-01-15T09:22:15;3.2;80.1
79301;SHT31;68755;51.984;5.646;2024-01-15T09:24:46;3.2;80.1
79301;SHT31;68755;51.984;5.646;2024-01-15T09:27:16;3.2;80.1
79301;SHT31;68755;51.984;5.646;2024-01-15T09:29:47;3.2;80.3
79301;SHT31;68755;51.984;5.646;2024-01-15T09:32:17;3.2;80.7
79301;SHT31;68755;51.984;5.646;2024-01-15T09:34:47;3.2;80.8
79301;SHT31;68755;51.984;5.646;2024-01-15T09:37:19;3.3;80.4
79301;SHT31;68755;51.984;5.646;2024-01-15T09:39:49;3.3;79.9
79301;SHT31;68755;51.984;5.646;2024-01-15T09:42:21;3.3;79.6
79301;SHT31;68755;51.984;5.646;2024-01-15T09:44:53;3.3;79.4
79301;SHT31;68755;51.984;5.646;2024-01-15T09:47:24;3.3;79.4
79301;SHT31;68755;51.984;5.646;2024-01-15T09:49:55;3.3;79.3
79301;SHT31;68755;51.984;5.646;2024-01-15T09:52:26;3.3;79.2
79301;SHT31;68755;51.984;5.646;2024-01-15T09:54:56;3.2;79.1
79301;SHT31;68755;51.984;5.646;2024-01-15T09:57:27;3.2;79.4
79301;SHT31;68755;51.984;5.646;2024-01-15T09:59:59;3.2;79.6
79301;SHT31;68755;51.984;5.646;2024-01-15T10:02:35;3.2;80.0
79301;SHT31;68755;51.984;5.646;2024-01-15T10:05:05;3.2;80.3
79301;SHT31;68755;51.984;5.646;2024-01-15T10:07:37;3.2;80.7
79301;SHT31;68755;51.984;5.646;2024-01-15T10:10:08;3.2;80.9
79301;SHT31;68755;51.984;5.646;2024-01-15T10:12:42;3.2;80.9
79301;SHT31;68755;51.984;5.646;2024-01-15T10:15:12;3.2;80.8
79301;SHT31;68755;51.984;5.646;2024-01-15T10:17:41;3.2;80.7
79301;SHT31;68755;51.984;5.646;2024-01-15T10:20:12;3.2;80.4
79301;SHT31;68755;51.984;5.646;2024-01-15T10:22:42;3.2;80.2
79301;SHT31;68755;51.984;5.646;2024-01-15T10:25:14;3.2;80.0
79301;SHT31;68755;51.984;5.646;2024-01-15T10:28:01;3.2;79.8
79301;SHT31;68755;51.984;5.646;2024-01-15T10:30:32;3.2;80.1
79301;SHT31;68755;51.984;5.646;2024-01-15T10:33:03;3.2;80.7
79301;SHT31;68755;51.984;5.646;2024-01-15T10:35:34;3.2;81.7
79301;SHT31;68755;51.984;5.646;2024-01-15T10:38:05;3.3;82.6
79301;SHT31;68755;51.984;5.646;2024-01-15T10:40:35;3.3;82.4
79301;SHT31;68755;51.984;5.646;2024-01-15T10:43:05;3.4;82.2
79301;SHT31;68755;51.984;5.646;2024-01-15T10:45:35;3.4;82.5
79301;SHT31;68755;51.984;5.646;2024-01-15T10:48:05;3.5;82.8
79301;SHT31;68755;51.984;5.646;2024-01-15T10:50:36;3.6;82.3
79301;SHT31;68755;51.984;5.646;2024-01-15T10:53:06;3.6;81.2
79301;SHT31;68755;51.984;5.646;2024-01-15T10:55:38;3.7;80.1
79301;SHT31;68755;51.984;5.646;2024-01-15T10:58:08;3.7;79.2
79301;SHT31;68755;51.984;5.646;2024-01-15T11:00:39;3.8;78.5
79301;SHT31;68755;51.984;5.646;2024-01-15T11:03:12;3.8;78.2
79301;SHT31;68755;51.984;5.646;2024-01-15T11:05:44;3.8;78.3
79301;SHT31;68755;51.984;5.646;2024-01-15T11:08:17;3.8;78.7
79301;SHT31;68755;51.984;5.646;2024-01-15T11:10:50;3.8;78.9
79301;SHT31;68755;51.984;5.646;2024-01-15T11:13:39;3.9;78.9
79301;SHT31;68755;51.984;5.646;2024-01-15T11:16:00;3.9;79.1
79301;SHT31;68755;51.984;5.646;2024-01-15T11:18:34;3.9;79.2
79301;SHT31;68755;51.984;5.646;2024-01-15T11:21:23;3.9;79.5
79301;SHT31;68755;51.984;5.646;2024-01-15T11:23:57;4.0;79.4
79301;SHT31;68755;51.984;5.646;2024-01-15T11:26:32;4.0;79.2
79301;SHT31;68755;51.984;5.646;2024-01-15T11:29:04;4.0;79.1
79301;SHT31;68755;51.984;5.646;2024-01-15T11:31:59;4.0;78.9
79301;SHT31;68755;51.984;5.646;2024-01-15T11:35:19;4.1;78.8
79301;SHT31;68755;51.984;5.646;2024-01-15T11:37:58;4.1;78.9
79301;SHT31;68755;51.984;5.646;2024-01-15T11:40:46;4.1;78.8
79301;SHT31;68755;51.984;5.646;2024-01-15T11:43:16;4.1;78.6
79301;SHT31;68755;51.984;5.646;2024-01-15T11:45:52;4.1;78.2
79301;SHT31;68755;51.984;5.646;2024-01-15T11:48:30;4.1;77.9
79301;SHT31;68755;51.984;5.646;2024-01-15T11:51:04;4.1;77.8
79301;SHT31;68755;51.984;5.646;2024-01-15T11:53:43;4.1;77.8
79301;SHT31;68755;51.984;5.646;2024-01-15T11:56:15;4.0;78.2
79301;SHT31;68755;51.984;5.646;2024-01-15T11:58:46;4.0;78.9
79301;SHT31;68755;51.984;5.646;2024-01-15T12:01:20;4.0;79.5
79301;SHT31;68755;51.984;5.646;2024-01-15T12:03:50;4.0;79.4
79301;SHT31;68755;51.984;5.646;2024-01-15T12:06:20;3.9;79.3
79301;SHT31;68755;51.984;5.646;2024-01-15T12:08:50;3.9;79.2
79301;SHT31;68755;51.984;5.646;2024-01-15T12:11:26;3.9;79.1
79301;SHT31;68755;51.984;5.646;2024-01-15T12:13:57;3.9;78.8
79301;SHT31;68755;51.984;5.646;2024-01-15T12:16:27;3.9;78.6
79301;SHT31;68755;51.984;5.646;2024-01-15T12:18:57;3.9;78.7
79301;SHT31;68755;51.984;5.646;2024-01-15T12:21:28;3.9;78.9
79301;SHT31;68755;51.984;5.646;2024-01-15T12:23:58;3.9;79.3
79301;SHT31;68755;51.984;5.646;2024-01-15T12:26:28;3.9;79.4
79301;SHT31;68755;51.984;5.646;2024-01-15T12:29:01;3.9;79.4
79301;SHT31;68755;51.984;5.646;2024-01-15T12:31:32;3.9;79.3
79301;SHT31;68755;51.984;5.646;2024-01-15T12:34:03;3.9;79.4
79301;SHT31;68755;51.984;5.646;2024-01-15T12:36:32;3.9;79.5
79301;SHT31;68755;51.984;5.646;2024-01-15T12:39:03;4.0;79.7
79301;SHT31;68755;51.984;5.646;2024-01-15T12:41:35;4.0;79.9
79301;SHT31;68755;51.984;5.646;2024-01-15T12:44:05;4.0;80.3
79301;SHT31;68755;51.984;5.646;2024-01-15T12:46:35;4.0;80.6
79301;SHT31;68755;51.984;5.646;2024-01-15T12:49:07;4.0;80.3
79301;SHT31;68755;51.984;5.646;2024-01-15T12:51:37;4.1;79.3
79301;SHT31;68755;51.984;5.646;2024-01-15T12:54:07;4.1;78.0
79301;SHT31;68755;51.984;5.646;2024-01-15T12:56:37;4.1;78.1
79301;SHT31;68755;51.984;5.646;2024-01-15T12:59:07;4.1;78.5
79301;SHT31;68755;51.984;5.646;2024-01-15T13:01:36;4.1;78.4
79301;SHT31;68755;51.984;5.646;2024-01-15T13:04:08;4.1;77.9
79301;SHT31;68755;51.984;5.646;2024-01-15T13:06:39;4.1;78.5
79301;SHT31;68755;51.984;5.646;2024-01-15T13:09:08;4.1;77.7
79301;SHT31;68755;51.984;5.646;2024-01-15T13:11:40;4.1;76.8
79301;SHT31;68755;51.984;5.646;2024-01-15T13:14:09;4.1;76.7
79301;SHT31;68755;51.984;5.646;2024-01-15T13:16:41;4.1;75.5
79301;SHT31;68755;51.984;5.646;2024-01-15T13:19:11;4.1;76.0
79301;SHT31;68755;51.984;5.646;2024-01-15T13:21:41;4.1;75.9
79301;SHT31;68755;51.984;5.646;2024-01-15T13:24:13;4.1;76.3
79301;SHT31;68755;51.984;5.646;2024-01-15T13:26:47;4.1;76.8
79301;SHT31;68755;51.984;5.646;2024-01-15T13:29:17;4.1;77.1
79301;SHT31;68755;51.984;5.646;2024-01-15T13:31:47;4.1;76.6
79301;SHT31;68755;51.984;5.646;2024-01-15T13:34:19;4.1;76.7
79301;SHT31;68755;51.984;5.646;2024-01-15T13:36:48;4.0;76.7
79301;SHT31;68755;51.984;5.646;2024-01-15T13:39:20;4.0;76.5
79301;SHT31;68755;51.984;5.646;2024-01-15T13:41:51;4.0;76.5
79301;SHT31;68755;51.984;5.646;2024-01-15T13:44:22;4.0;76.4
79301;SHT31;68755;51.984;5.646;2024-01-15T13:46:52;4.0;76.0
79301;SHT31;68755;51.984;5.646;2024-01-15T13:49:21;4.0;76.1
79301;SHT31;68755;51.984;5.646;2024-01-15T13:51:53;4.0;76.3
79301;SHT31;68755;51.984;5.646;2024-01-15T13:54:23;3.9;76.4
79301;SHT31;68755;51.984;5.646;2024-01-15T13:56:52;3.9;76.7
79301;SHT31;68755;51.984;5.646;2024-01-15T13:59:23;3.9;76.9
79301;SHT31;68755;51.984;5.646;2024-01-15T14:01:52;3.9;77.0
79301;SHT31;68755;51.984;5.646;2024-01-15T14:04:22;3.8;76.9
79301;SHT31;68755;51.984;5.646;2024-01-15T14:06:52;3.8;76.9
79301;SHT31;68755;51.984;5.646;2024-01-15T14:09:22;3.8;76.8
79301;SHT31;68755;51.984;5.646;2024-01-15T14:11:53;3.8;76.9
79301;SHT31;68755;51.984;5.646;2024-01-15T14:14:22;3.8;77.1
79301;SHT31;68755;51.984;5.646;2024-01-15T14:16:52;3.7;77.4
79301;SHT31;68755;51.984;5.646;2024-01-15T14:19:22;3.7;77.6
79301;SHT31;68755;51.984;5.646;2024-01-15T14:21:52;3.7;77.8
79301;SHT31;68755;51.984;5.646;2024-01-15T14:24:22;3.7;78.1
79301;SHT31;68755;51.984;5.646;2024-01-15T14:26:52;3.7;78.4
79301;SHT31;68755;51.984;5.646;2024-01-15T14:29:21;3.7;78.4
79301;SHT31;68755;51.984;5.646;2024-01-15T14:31:53;3.7;78.4
79301;SHT31;68755;51.984;5.646;2024-01-15T14:34:23;3.7;78.4
79301;SHT31;68755;51.984;5.646;2024-01-15T14:36:53;3.7;78.6
79301;SHT31;68755;51.984;5.646;2024-01-15T14:39:24;3.7;78.8
79301;SHT31;68755;51.984;5.646;2024-01-15T14:41:54;3.7;79.2
79301;SHT31;68755;51.984;5.646;2024-01-15T14:44:24;3.7;79.2
79301;SHT31;68755;51.984;5.646;2024-01-15T14:46:55;3.7;78.8
79301;SHT31;68755;51.984;5.646;2024-01-15T14:49:26;3.8;78.1
79301;SHT31;68755;51.984;5.646;2024-01-15T14:51:55;3.8;77.1
79301;SHT31;68755;51.984;5.646;2024-01-15T14:54:25;3.8;76.6
79301;SHT31;68755;51.984;5.646;2024-01-15T14:56:55;3.7;76.1
79301;SHT31;68755;51.984;5.646;2024-01-15T14:59:24;3.7;76.1
79301;SHT31;68755;51.984;5.646;2024-01-15T15:01:56;3.7;76.1
79301;SHT31;68755;51.984;5.646;2024-01-15T15:04:26;3.7;76.1
79301;SHT31;68755;51.984;5.646;2024-01-15T15:06:57;3.7;76.3
79301;SHT31;68755;51.984;5.646;2024-01-15T15:09:26;3.7;76.3
79301;SHT31;68755;51.984;5.646;2024-01-15T15:11:56;3.7;76.6
79301;SHT31;68755;51.984;5.646;2024-01-15T15:14:26;3.7;76.9
79301;SHT31;68755;51.984;5.646;2024-01-15T15:16:56;3.7;77.4
79301;SHT31;68755;51.984;5.646;2024-01-15T15:19:25;3.6;77.7
79301;SHT31;68755;51.984;5.646;2024-01-15T15:21:55;3.6;77.8
79301;SHT31;68755;51.984;5.646;2024-01-15T15:24:25;3.6;77.9
79301;SHT31;68755;51.984;5.646;2024-01-15T15:26:54;3.6;77.9
79301;SHT31;68755;51.984;5.646;2024-01-15T15:29:24;3.6;78.0
79301;SHT31;68755;51.984;5.646;2024-01-15T15:31:56;3.6;77.8
79301;SHT31;68755;51.984;5.646;2024-01-15T15:34:25;3.6;77.8
79301;SHT31;68755;51.984;5.646;2024-01-15T15:36:55;3.5;77.8
79301;SHT31;68755;51.984;5.646;2024-01-15T15:39:27;3.5;77.8
79301;SHT31;68755;51.984;5.646;2024-01-15T15:41:58;3.5;77.8
79301;SHT31;68755;51.984;5.646;2024-01-15T15:44:28;3.5;77.8
79301;SHT31;68755;51.984;5.646;2024-01-15T15:46:57;3.4;77.9
79301;SHT31;68755;51.984;5.646;2024-01-15T15:49:27;3.4;77.8
79301;SHT31;68755;51.984;5.646;2024-01-15T15:51:57;3.4;78.0
79301;SHT31;68755;51.984;5.646;2024-01-15T15:54:26;3.4;78.2
79301;SHT31;68755;51.984;5.646;2024-01-15T15:56:56;3.4;78.5
79301;SHT31;68755;51.984;5.646;2024-01-15T15:59:25;3.4;78.7
79301;SHT31;68755;51.984;5.646;2024-01-15T16:01:55;3.4;78.9
79301;SHT31;68755;51.984;5.646;2024-01-15T16:04:25;3.4;78.8
79301;SHT31;68755;51.984;5.646;2024-01-15T16:06:54;3.4;78.7
79301;SHT31;68755;51.984;5.646;2024-01-15T16:09:26;3.4;78.4
79301;SHT31;68755;51.984;5.646;2024-01-15T16:11:56;3.4;78.3
79301;SHT31;68755;51.984;5.646;2024-01-15T16:14:25;3.4;78.4
79301;SHT31;68755;51.984;5.646;2024-01-15T16:16:55;3.5;78.2
79301;SHT31;68755;51.984;5.646;2024-01-15T16:19:25;3.5;77.9
79301;SHT31;68755;51.984;5.646;2024-01-15T16:21:55;3.5;77.4
79301;SHT31;68755;51.984;5.646;2024-01-15T16:24:25;3.5;76.8
79301;SHT31;68755;51.984;5.646;2024-01-15T16:26:55;3.5;77.2
79301;SHT31;68755;51.984;5.646;2024-01-15T16:29:26;3.5;77.1
79301;SHT31;68755;51.984;5.646;2024-01-15T16:31:56;3.5;76.9
79301;SHT31;68755;51.984;5.646;2024-01-15T16:34:25;3.5;77.3
79301;SHT31;68755;51.984;5.646;2024-01-15T16:36:55;3.6;77.3
79301;SHT31;68755;51.984;5.646;2024-01-15T16:39:25;3.6;76.9